Time;durP1;ratioP1;P1;durP2;ratioP2;P2;SDS_P1;SDS_P2;PMS_P1;PMS_P2;Temp;Humidity;BMP_temperature;BMP_pressure;BME280_temperature;BME280_humidity;BME280_pressure;Samples;Min_cycle;Max_cycle;Signal;HPM_P1;HPM_P2
2024/02/02 00:01:35;;;;;;;63.63;49.17;;;7.50;99.90;;;;;;5044447;28;20503;-53
2024/02/02 00:04:02;;;;;;;62.88;49.47;;;7.40;99.90;;;;;;5053328;28;20040;-52
2024/02/02 00:06:29;;;;;;;63.58;48.95;;;7.40;99.90;;;;;;5034053;28;20159;-55
2024/02/02 00:08:54;;;;;;;69.05;49.72;;;7.30;99.90;;;;;;5031946;28;20363;-53
2024/02/02 00:11:20;;;;;;;62.60;49.00;;;7.30;99.90;;;;;;5066793;28;20043;-51
2024/02/02 00:13:46;;;;;;;64.85;51.08;;;7.30;99.90;;;;;;5053057;28;20435;-53
2024/02/02 00:16:12;;;;;;;62.13;48.65;;;7.20;99.90;;;;;;5018636;28;20033;-56
2024/02/02 00:18:38;;;;;;;64.03;48.78;;;7.20;99.90;;;;;;5047621;28;20045;-53
2024/02/02 00:21:04;;;;;;;65.05;48.55;;;7.20;99.90;;;;;;5032858;28;20056;-53
2024/02/02 00:23:30;;;;;;;86.03;57.53;;;7.10;99.90;;;;;;5047509;28;20047;-54
2024/02/02 00:25:55;;;;;;;63.13;49.25;;;7.00;99.90;;;;;;5014167;28;20052;-52
2024/02/02 00:28:22;;;;;;;61.20;47.33;;;7.00;99.90;;;;;;5016102;28;20404;-51
2024/02/02 00:30:47;;;;;;;60.95;46.33;;;7.00;99.90;;;;;;5048222;28;20472;-54
2024/02/02 00:33:13;;;;;;;58.17;46.63;;;6.90;99.90;;;;;;5033901;28;20120;-52
2024/02/02 00:35:39;;;;;;;62.83;48.55;;;6.90;99.90;;;;;;5052660;28;20492;-53
2024/02/02 00:38:04;;;;;;;62.25;45.88;;;6.80;99.90;;;;;;5052652;28;20039;-51
2024/02/02 00:40:30;;;;;;;63.92;46.92;;;6.80;99.90;;;;;;5042865;28;20025;-52
2024/02/02 00:42:56;;;;;;;65.53;46.30;;;6.70;99.90;;;;;;5030204;28;20045;-52
2024/02/02 00:45:22;;;;;;;60.13;44.78;;;6.70;99.90;;;;;;5030304;28;20033;-54
2024/02/02 00:47:47;;;;;;;59.55;47.05;;;6.70;99.90;;;;;;5013709;28;20427;-54
2024/02/02 00:50:13;;;;;;;63.22;45.67;;;6.70;99.90;;;;;;5034071;28;20484;-56
2024/02/02 00:52:39;;;;;;;63.05;48.60;;;6.70;99.90;;;;;;5043317;28;20053;-55
2024/02/02 00:55:05;;;;;;;62.13;47.28;;;6.70;99.90;;;;;;5025941;28;20045;-52
2024/02/02 00:57:30;;;;;;;63.38;47.42;;;6.80;99.90;;;;;;5045643;28;20468;-52
2024/02/02 00:59:56;;;;;;;58.30;45.17;;;6.70;99.90;;;;;;5045361;28;20032;-55
2024/02/02 01:02:22;;;;;;;61.53;45.58;;;6.70;99.90;;;;;;5038104;28;20048;-54
2024/02/02 01:04:48;;;;;;;59.05;44.33;;;6.70;99.90;;;;;;5049910;28;20033;-54
2024/02/02 01:07:18;;;;;;;58.50;42.83;;;6.60;99.90;;;;;;5049908;28;20044;-52
2024/02/02 01:09:44;;;;;;;57.50;44.78;;;6.60;99.90;;;;;;5049965;28;20686;-53
2024/02/02 01:12:10;;;;;;;58.10;43.03;;;6.50;99.90;;;;;;5049894;28;20091;-54
2024/02/02 01:14:38;;;;;;;57.10;41.05;;;6.50;99.90;;;;;;5049303;28;20045;-52
2024/02/02 01:17:03;;;;;;;53.22;39.30;;;6.40;99.90;;;;;;5033136;28;20040;-52
2024/02/02 01:19:29;;;;;;;54.42;39.97;;;;;;;;;;5049672;28;20029;-55
2024/02/02 01:21:55;;;;;;;56.10;42.22;;;6.30;99.90;;;;;;5049764;28;20729;-52
2024/02/02 01:24:21;;;;;;;55.90;42.13;;;6.30;99.90;;;;;;5049879;28;20032;-52
2024/02/02 01:26:46;;;;;;;52.40;38.50;;;6.30;99.90;;;;;;5033003;28;20040;-54
2024/02/02 01:29:12;;;;;;;56.50;43.30;;;6.20;99.90;;;;;;5049773;28;20028;-54
2024/02/02 01:31:38;;;;;;;54.95;42.80;;;6.10;99.90;;;;;;5049427;28;20056;-53
2024/02/02 01:34:04;;;;;;;52.85;41.55;;;6.10;99.90;;;;;;5045339;28;20087;-55
2024/02/02 01:36:30;;;;;;;56.60;43.92;;;6.10;99.90;;;;;;5056119;28;20029;-54
2024/02/02 01:38:55;;;;;;;62.35;43.67;;;6.10;99.90;;;;;;5054018;28;20076;-54
2024/02/02 01:41:21;;;;;;;57.15;44.53;;;6.10;99.90;;;;;;5056069;28;20120;-55
2024/02/02 01:43:47;;;;;;;57.85;44.15;;;6.00;99.90;;;;;;5056075;28;20036;-54
2024/02/02 01:46:13;;;;;;;62.42;46.58;;;6.00;99.90;;;;;;5055954;28;20440;-54
2024/02/02 01:48:38;;;;;;;56.90;43.47;;;5.90;99.90;;;;;;5053895;28;20044;-53
2024/02/02 01:51:05;;;;;;;60.38;45.85;;;5.90;99.90;;;;;;5055836;28;20050;-54
2024/02/02 01:53:31;;;;;;;61.65;44.50;;;6.00;99.90;;;;;;5055564;28;20048;-52
2024/02/02 01:55:57;;;;;;;60.13;45.60;;;6.00;99.90;;;;;;5037060;28;20123;-53
2024/02/02 01:58:24;;;;;;;57.88;44.90;;;6.10;99.90;;;;;;5055782;28;20033;-52
2024/02/02 02:00:50;;;;;;;59.72;45.40;;;6.10;99.90;;;;;;5055653;28;20033;-55
2024/02/02 02:03:17;;;;;;;56.10;41.00;;;6.10;99.90;;;;;;5055664;28;20033;-53
2024/02/02 02:05:43;;;;;;;58.72;42.63;;;6.10;99.90;;;;;;5055471;28;20171;-54
2024/02/02 02:08:09;;;;;;;49.25;37.20;;;6.10;99.90;;;;;;5055526;28;20033;-52
2024/02/02 02:10:35;;;;;;;42.58;33.03;;;6.00;99.90;;;;;;5055509;28;20029;-52
2024/02/02 02:13:02;;;;;;;36.28;27.55;;;6.10;99.90;;;;;;5053523;28;20052;-54
2024/02/02 02:15:28;;;;;;;31.10;22.23;;;6.10;99.90;;;;;;5054040;28;20526;-52
2024/02/02 02:17:54;;;;;;;35.33;28.17;;;6.10;99.90;;;;;;5053309;28;20049;-54
2024/02/02 02:20:25;;;;;;;37.15;29.27;;;6.10;99.90;;;;;;5055504;28;20032;-53
2024/02/02 02:22:51;;;;;;;40.90;29.98;;;6.10;99.90;;;;;;5055233;28;20040;-54
2024/02/02 02:25:17;;;;;;;40.45;30.27;;;6.10;99.90;;;;;;5055367;28;20103;-54
2024/02/02 02:27:44;;;;;;;40.53;30.98;;;6.10;99.90;;;;;;5069776;28;20040;-53
2024/02/02 02:30:10;;;;;;;38.88;29.92;;;6.10;99.90;;;;;;5055154;28;20053;-52
2024/02/02 02:32:36;;;;;;;37.75;28.50;;;6.10;99.90;;;;;;5036130;28;20037;-52
2024/02/02 02:35:02;;;;;;;35.72;29.00;;;6.20;99.90;;;;;;5055199;28;20090;-53
2024/02/02 02:37:28;;;;;;;37.58;28.48;;;6.20;99.90;;;;;;5055074;28;20017;-53
2024/02/02 02:39:53;;;;;;;40.78;30.05;;;6.20;99.90;;;;;;5054913;28;20029;-52
2024/02/02 02:42:20;;;;;;;37.78;30.35;;;6.30;99.90;;;;;;5054957;28;20028;-53
2024/02/02 02:44:45;;;;;;;42.72;30.83;;;6.30;99.90;;;;;;5054779;28;20040;-54
2024/02/02 02:47:12;;;;;;;40.22;30.73;;;6.30;99.90;;;;;;5054905;28;20033;-52
2024/02/02 02:49:38;;;;;;;38.78;29.35;;;6.30;99.90;;;;;;5052771;28;20564;-53
2024/02/02 02:52:04;;;;;;;37.40;29.45;;;6.30;99.90;;;;;;5054510;28;20057;-52
2024/02/02 02:54:32;;;;;;;39.30;30.65;;;6.20;99.90;;;;;;5054536;28;20392;-55
2024/02/02 02:56:58;;;;;;;37.55;26.85;;;6.30;99.90;;;;;;5054500;28;20469;-52
2024/02/02 02:59:24;;;;;;;40.70;30.88;;;6.40;99.90;;;;;;5052544;28;20041;-54
2024/02/02 03:01:50;;;;;;;41.88;30.98;;;6.40;99.90;;;;;;5054584;28;20098;-54
2024/02/02 03:04:15;;;;;;;40.55;27.20;;;6.40;99.90;;;;;;5052534;28;20037;-52
2024/02/02 03:06:41;;;;;;;39.03;30.10;;;6.40;99.90;;;;;;5052467;28;20040;-52
2024/02/02 03:09:07;;;;;;;25.75;18.90;;;6.40;99.90;;;;;;5054385;28;20543;-55
2024/02/02 03:11:33;;;;;;;41.03;29.55;;;6.30;99.90;;;;;;5052306;28;20043;-54
2024/02/02 03:13:59;;;;;;;35.95;27.45;;;6.40;99.90;;;;;;5035511;28;20446;-53
2024/02/02 03:16:25;;;;;;;37.38;25.63;;;6.40;99.90;;;;;;5052412;28;20040;-53
2024/02/02 03:18:51;;;;;;;40.75;30.70;;;6.40;99.90;;;;;;5052186;28;20044;-54
2024/02/02 03:21:16;;;;;;;39.92;28.23;;;6.40;99.90;;;;;;5052255;28;20037;-53
2024/02/02 03:23:42;;;;;;;38.15;28.23;;;6.40;99.90;;;;;;5054222;28;20025;-53
2024/02/02 03:26:08;;;;;;;37.78;28.48;;;6.50;99.90;;;;;;5051976;28;20036;-53
2024/02/02 03:28:34;;;;;;;32.22;26.02;;;6.40;99.90;;;;;;5052108;28;20037;-54
2024/02/02 03:31:00;;;;;;;34.35;27.50;;;6.40;99.90;;;;;;5053863;28;20021;-53
2024/02/02 03:33:26;;;;;;;30.70;22.77;;;6.40;99.90;;;;;;5051945;28;20051;-54
2024/02/02 03:35:52;;;;;;;33.55;26.13;;;6.30;99.90;;;;;;5053769;28;20037;-54
2024/02/02 03:38:18;;;;;;;33.33;24.40;;;6.30;99.90;;;;;;5053980;28;20068;-53
2024/02/02 03:40:43;;;;;;;28.20;19.23;;;6.30;99.90;;;;;;5051601;28;20449;-54
2024/02/02 03:43:12;;;;;;;32.63;23.95;;;6.20;99.90;;;;;;5051726;28;20095;-54
2024/02/02 03:45:38;;;;;;;30.17;23.55;;;6.20;99.90;;;;;;5053855;28;20028;-55
2024/02/02 03:48:04;;;;;;;31.38;23.00;;;6.20;99.90;;;;;;5053676;28;20365;-54
2024/02/02 03:50:30;;;;;;;30.15;22.58;;;6.20;99.90;;;;;;5051627;28;20033;-54
2024/02/02 03:52:56;;;;;;;27.30;21.70;;;;;;;;;;5051383;28;20059;-53
2024/02/02 03:55:22;;;;;;;26.48;22.08;;;6.20;99.90;;;;;;5053564;28;20033;-54
2024/02/02 03:57:48;;;;;;;25.98;19.73;;;6.10;99.90;;;;;;5053008;28;20472;-52
2024/02/02 04:00:15;;;;;;;26.55;20.90;;;6.10;99.90;;;;;;5052148;28;20112;-53
2024/02/02 04:02:43;;;;;;;27.25;20.73;;;6.20;99.90;;;;;;5051214;28;20048;-54
2024/02/02 04:05:09;;;;;;;28.60;21.50;;;6.20;99.90;;;;;;5053263;28;20036;-54
2024/02/02 04:07:35;;;;;;;23.73;17.60;;;6.10;99.90;;;;;;5053243;28;20029;-54
2024/02/02 04:10:00;;;;;;;26.05;19.77;;;6.10;99.90;;;;;;5053261;28;20025;-52
2024/02/02 04:12:26;;;;;;;27.58;20.75;;;6.20;99.90;;;;;;5053204;28;20055;-53
2024/02/02 04:14:52;;;;;;;25.42;20.98;;;6.20;99.90;;;;;;5051041;28;20037;-54
2024/02/02 04:17:18;;;;;;;23.30;19.48;;;6.10;99.90;;;;;;5053165;28;20025;-53
2024/02/02 04:19:44;;;;;;;26.48;19.60;;;6.10;99.90;;;;;;5053034;28;20032;-53
2024/02/02 04:22:10;;;;;;;28.67;20.02;;;6.10;99.90;;;;;;5053061;28;20061;-53
2024/02/02 04:24:36;;;;;;;26.00;19.52;;;6.20;99.90;;;;;;5053059;28;20148;-55
2024/02/02 04:27:02;;;;;;;28.23;20.67;;;6.20;99.90;;;;;;5053031;28;20039;-55
2024/02/02 04:29:28;;;;;;;25.08;20.02;;;6.20;99.90;;;;;;5050809;28;20029;-53
2024/02/02 04:31:54;;;;;;;24.38;19.05;;;;;;;;;;5050923;28;20037;-54
2024/02/02 04:34:20;;;;;;;24.73;18.63;;;;;;;;;;5052768;28;20078;-53
2024/02/02 04:36:46;;;;;;;26.70;19.48;;;6.40;99.90;;;;;;5052810;28;20086;-52
2024/02/02 04:39:12;;;;;;;22.92;18.73;;;;;;;;;;5052726;28;20037;-52
2024/02/02 04:41:38;;;;;;;23.60;18.65;;;6.40;99.90;;;;;;5052754;28;20128;-53
2024/02/02 04:44:04;;;;;;;27.85;19.20;;;6.40;99.90;;;;;;5052637;28;20087;-52
2024/02/02 04:46:30;;;;;;;25.27;18.55;;;6.40;99.90;;;;;;5052562;28;20025;-52
2024/02/02 04:48:56;;;;;;;23.30;18.45;;;6.50;99.90;;;;;;5052405;28;20132;-53
2024/02/02 04:51:21;;;;;;;22.77;17.70;;;6.50;99.90;;;;;;5052272;28;20033;-54
2024/02/02 04:53:47;;;;;;;23.30;18.50;;;6.50;99.90;;;;;;5050934;28;20056;-54
2024/02/02 04:56:13;;;;;;;21.88;16.83;;;7.10;99.90;;;;;;5032204;28;20083;-52
2024/02/02 04:58:38;;;;;;;21.98;17.23;;;6.40;99.90;;;;;;5032534;28;20036;-52
2024/02/02 05:01:04;;;;;;;25.33;17.48;;;6.50;99.90;;;;;;5032524;28;20017;-55
2024/02/02 05:03:31;;;;;;;23.02;17.45;;;6.40;99.90;;;;;;5032427;28;20078;-53
2024/02/02 05:05:57;;;;;;;24.05;18.48;;;;;;;;;;5046678;28;20084;-53
2024/02/02 05:08:23;;;;;;;21.73;16.65;;;;;;;;;;5031587;28;20038;-52
2024/02/02 05:10:49;;;;;;;22.95;16.83;;;6.40;99.90;;;;;;5032352;28;20405;-52
2024/02/02 05:13:15;;;;;;;23.98;18.08;;;6.20;99.90;;;;;;5032350;28;20040;-52
2024/02/02 05:15:41;;;;;;;23.67;18.08;;;6.20;99.90;;;;;;5032336;28;20029;-53
2024/02/02 05:18:07;;;;;;;24.50;19.08;;;;;;;;;;5032239;28;20027;-54
2024/02/02 05:20:33;;;;;;;22.75;17.90;;;;;;;;;;5030203;28;20129;-53
2024/02/02 05:22:59;;;;;;;24.52;19.55;;;;;;;;;;5032274;28;20029;-52
2024/02/02 05:25:25;;;;;;;23.75;18.58;;;6.30;99.90;;;;;;5030115;28;20044;-52
2024/02/02 05:27:51;;;;;;;26.30;18.42;;;6.20;99.90;;;;;;5032214;28;20029;-54
2024/02/02 05:30:16;;;;;;;24.45;17.90;;;6.10;99.90;;;;;;5033690;28;20465;-53
2024/02/02 05:32:42;;;;;;;23.70;18.23;;;6.10;99.90;;;;;;5032072;28;20061;-53
2024/02/02 05:35:08;;;;;;;23.13;19.13;;;6.20;99.90;;;;;;5031956;28;20041;-52
2024/02/02 05:37:34;;;;;;;22.60;19.20;;;;;;;;;;5031981;28;20028;-55
2024/02/02 05:40:00;;;;;;;27.58;19.95;;;;;;;;;;5031909;28;20030;-54
2024/02/02 05:42:26;;;;;;;26.42;20.98;;;;;;;;;;5046580;28;20045;-53
2024/02/02 05:44:52;;;;;;;24.02;18.92;;;;;;;;;;5031966;28;20076;-52
2024/02/02 05:47:18;;;;;;;25.10;20.27;;;6.30;99.90;;;;;;5030024;28;20540;-52
2024/02/02 05:49:44;;;;;;;26.40;19.77;;;6.20;99.90;;;;;;5045520;28;20132;-54
2024/02/02 05:52:09;;;;;;;32.38;24.50;;;6.10;99.90;;;;;;5051609;28;20080;-54
2024/02/02 05:54:35;;;;;;;26.83;18.42;;;6.10;99.90;;;;;;5051783;28;20207;-52
2024/02/02 05:57:01;;;;;;;23.73;15.85;;;6.00;99.90;;;;;;5049835;28;20148;-54
2024/02/02 05:59:27;;;;;;;25.00;18.70;;;5.90;99.90;;;;;;5048372;28;20500;-53
2024/02/02 06:01:53;;;;;;;22.58;17.90;;;5.90;99.90;;;;;;5036500;28;20026;-54
2024/02/02 06:04:18;;;;;;;23.02;16.75;;;5.80;99.90;;;;;;5031861;28;20091;-53
2024/02/02 06:06:44;;;;;;;23.20;16.38;;;5.70;99.90;;;;;;5046363;28;20037;-55
2024/02/02 06:09:11;;;;;;;21.80;15.90;;;;;;;;;;5034707;28;20064;-53
2024/02/02 06:11:37;;;;;;;22.23;15.57;;;;;;;;;;5042053;28;20400;-53
2024/02/02 06:14:03;;;;;;;26.67;17.80;;;;;;;;;;5051723;28;20021;-53
2024/02/02 06:16:29;;;;;;;21.35;14.95;;;;;;;;;;5051709;28;20037;-54
2024/02/02 06:18:55;;;;;;;18.88;15.18;;;;;;;;;;5012600;28;20608;-55
2024/02/02 06:21:22;;;;;;;19.40;15.13;;;;;;;;;;5045612;28;20036;-54
2024/02/02 06:23:48;;;;;;;19.42;13.77;;;;;;;;;;5020025;28;20049;-54
2024/02/02 06:26:14;;;;;;;17.25;12.55;;;;;;;;;;5055278;28;20025;-53
2024/02/02 06:28:40;;;;;;;15.07;11.50;;;;;;;;;;5054790;28;20029;-52
2024/02/02 06:31:06;;;;;;;15.93;11.93;;;;;;;;;;5055299;28;20041;-54
2024/02/02 06:33:32;;;;;;;15.45;10.77;;;;;;;;;;5055214;28;20048;-53
2024/02/02 06:35:58;;;;;;;14.32;11.13;;;7.00;99.90;;;;;;5054913;28;20036;-54
2024/02/02 06:38:24;;;;;;;15.32;11.13;;;7.20;99.90;;;;;;5047691;28;20041;-55
2024/02/02 06:40:50;;;;;;;13.48;10.23;;;;;;;;;;5036595;28;20028;-53
2024/02/02 06:43:16;;;;;;;14.23;10.50;;;;;;;;;;5035043;28;20108;-53
2024/02/02 06:45:42;;;;;;;14.15;11.20;;;12.10;99.90;;;;;;5032917;28;20489;-54
2024/02/02 06:48:11;;;;;;;17.30;11.38;;;12.80;95.90;;;;;;5035044;28;20432;-52
2024/02/02 06:50:37;;;;;;;17.92;12.27;;;;;;;;;;5037563;28;20047;-52
2024/02/02 06:53:04;;;;;;;16.40;11.68;;;;;;;;;;5039655;28;20053;-53
2024/02/02 06:55:30;;;;;;;14.88;10.75;;;11.90;93.20;;;;;;5041633;28;20068;-53
2024/02/02 06:57:56;;;;;;;18.75;12.93;;;12.40;93.70;;;;;;5043800;28;20563;-52
2024/02/02 07:00:22;;;;;;;16.35;11.98;;;12.40;99.90;;;;;;5042663;28;20059;-53
2024/02/02 07:02:48;;;;;;;17.35;12.05;;;12.20;93.80;;;;;;5043587;28;20040;-52
2024/02/02 07:05:14;;;;;;;16.42;12.65;;;12.00;93.90;;;;;;5051655;28;20028;-52
2024/02/02 07:07:41;;;;;;;21.33;15.45;;;11.80;93.90;;;;;;5052186;28;20029;-54
2024/02/02 07:10:15;;;;;;;69.35;44.67;;;10.90;94.80;;;;;;5049867;28;20102;-52
2024/02/02 07:12:59;;;;;;;33.17;26.02;;;10.40;95.70;;;;;;5042957;28;20090;-52
2024/02/02 07:15:27;;;;;;;36.35;26.85;;;;;;;;;;5047436;28;20135;-53
2024/02/02 07:17:53;;;;;;;35.47;28.77;;;9.40;99.90;;;;;;5045676;28;20059;-53
2024/02/02 07:20:21;;;;;;;35.42;30.05;;;9.30;99.20;;;;;;5048282;28;20029;-53
2024/02/02 07:22:48;;;;;;;31.00;25.35;;;;;;;;;;5045347;28;20416;-53
2024/02/02 07:25:19;;;;;;;33.20;23.45;;;8.90;99.90;;;;;;5045256;28;20060;-54
2024/02/02 07:28:00;;;;;;;24.40;19.23;;;8.60;99.90;;;;;;5040069;28;20041;-53
2024/02/02 07:30:44;;;;;;;23.10;18.17;;;8.40;99.90;;;;;;5034075;28;20408;-53
2024/02/02 07:33:24;;;;;;;25.25;18.90;;;8.40;99.90;;;;;;5035791;28;20096;-53
2024/02/02 07:35:52;;;;;;;23.48;17.25;;;8.50;99.90;;;;;;5048102;28;20156;-53
2024/02/02 07:38:49;;;;;;;22.05;17.13;;;8.60;99.90;;;;;;5048561;28;20049;-52
2024/02/02 07:41:16;;;;;;;22.90;18.77;;;8.90;99.90;;;;;;5013074;28;20037;-51
2024/02/02 07:43:42;;;;;;;21.08;16.75;;;9.40;99.90;;;;;;5048240;28;20049;-50
2024/02/02 07:46:08;;;;;;;24.95;18.52;;;10.00;99.90;;;;;;5033781;28;20021;-51
2024/02/02 07:48:35;;;;;;;24.30;17.60;;;10.20;99.90;;;;;;5033897;28;20033;-52
2024/02/02 07:51:01;;;;;;;21.25;14.23;;;10.60;99.00;;;;;;5033367;28;20033;-50
2024/02/02 07:53:28;;;;;;;18.23;12.88;;;10.60;98.70;;;;;;5033729;28;20455;-50
2024/02/02 07:55:54;;;;;;;25.70;17.65;;;10.50;98.50;;;;;;5033603;28;20129;-50
2024/02/02 07:58:23;;;;;;;20.23;14.70;;;10.80;98.40;;;;;;5048143;28;20117;-52
2024/02/02 08:00:49;;;;;;;22.98;16.75;;;10.50;97.90;;;;;;5033448;28;20579;-50
2024/02/02 08:03:15;;;;;;;18.60;15.32;;;10.20;98.80;;;;;;5048016;28;20041;-52
2024/02/02 08:05:41;;;;;;;20.88;14.52;;;9.80;99.30;;;;;;5033377;28;20025;-51
2024/02/02 08:08:07;;;;;;;21.65;15.52;;;9.40;99.90;;;;;;5033379;28;20083;-52
2024/02/02 08:10:33;;;;;;;19.60;15.13;;;9.90;99.90;;;;;;5033318;28;20033;-51
2024/02/02 08:12:59;;;;;;;16.75;11.93;;;10.20;99.10;;;;;;5032834;28;20057;-52
2024/02/02 08:15:25;;;;;;;18.75;14.80;;;10.10;98.40;;;;;;5040731;28;20077;-51
2024/02/02 08:17:51;;;;;;;17.88;13.20;;;9.90;99.00;;;;;;5048617;28;20029;-51
2024/02/02 08:20:17;;;;;;;16.98;14.43;;;10.10;99.20;;;;;;5043590;28;20029;-52
2024/02/02 08:22:44;;;;;;;19.70;15.55;;;11.20;98.20;;;;;;5038239;28;20041;-53
2024/02/02 08:25:11;;;;;;;18.13;13.40;;;;;;;;;;5043985;28;20033;-52
2024/02/02 08:27:37;;;;;;;22.02;16.00;;;11.30;96.30;;;;;;5041733;28;20037;-53
2024/02/02 08:30:05;;;;;;;19.30;14.25;;;10.80;96.50;;;;;;5042506;28;20140;-53
2024/02/02 08:32:32;;;;;;;22.55;19.48;;;10.30;97.70;;;;;;5040008;28;20447;-53
2024/02/02 08:34:58;;;;;;;18.67;12.15;;;12.20;97.70;;;;;;5041744;28;20041;-53
2024/02/02 08:37:24;;;;;;;22.20;18.27;;;13.20;95.10;;;;;;5040123;28;20623;-53
2024/02/02 08:39:52;;;;;;;20.75;18.60;;;14.20;94.70;;;;;;5041245;28;20033;-53
2024/02/02 08:42:21;;;;;;;20.55;16.33;;;;;;;;;;5042334;28;20119;-53
2024/02/02 08:44:48;;;;;;;19.52;16.85;;;15.50;91.50;;;;;;5041320;28;20070;-54
2024/02/02 08:47:14;;;;;;;21.83;16.30;;;17.00;90.90;;;;;;5036113;28;20032;-53
2024/02/02 08:49:42;;;;;;;17.27;11.95;;;;;;;;;;5045424;28;20029;-54
2024/02/02 08:52:16;;;;;;;15.82;14.18;;;17.20;85.90;;;;;;5040705;28;20061;-53
2024/02/02 08:54:48;;;;;;;17.85;13.07;;;17.60;86.20;;;;;;5032060;28;20071;-54
2024/02/02 08:57:58;;;;;;;15.07;12.40;;;17.70;85.60;;;;;;5030000;28;20060;-54
2024/02/02 09:00:34;;;;;;;15.95;14.27;;;;;;;;;;5041382;28;20040;-52
2024/02/02 09:03:19;;;;;;;12.02;10.40;;;18.90;97.70;;;;;;5052197;28;20381;-52
2024/02/02 09:05:51;;;;;;;14.73;10.65;;;;;;;;;;5052469;28;20025;-53
2024/02/02 09:08:27;;;;;;;12.35;10.35;;;17.30;96.40;;;;;;5052154;28;20033;-53
2024/02/02 09:10:59;;;;;;;10.07;7.65;;;17.40;82.90;;;;;;5052080;28;20040;-53
2024/02/02 09:13:28;;;;;;;10.07;8.68;;;15.50;83.20;;;;;;5052054;28;20047;-52
2024/02/02 09:15:55;;;;;;;18.50;13.43;;;16.40;84.00;;;;;;5051969;28;20075;-53
2024/02/02 09:18:30;;;;;;;18.42;13.75;;;17.30;84.00;;;;;;5039900;28;20037;-53
2024/02/02 09:20:55;;;;;;;16.05;10.85;;;17.70;90.60;;;;;;5036409;28;20469;-53
2024/02/02 09:23:21;;;;;;;12.70;9.23;;;;;;;;;;5051956;28;20025;-54
2024/02/02 09:25:47;;;;;;;10.55;6.85;;;17.30;82.40;;;;;;5052026;28;20032;-52
2024/02/02 09:28:25;;;;;;;9.65;6.78;;;16.40;82.20;;;;;;5046395;28;20496;-55
2024/02/02 09:31:02;;;;;;;6.43;4.82;;;15.60;82.60;;;;;;5044258;28;20025;-52
2024/02/02 09:33:31;;;;;;;11.85;8.20;;;15.10;83.20;;;;;;5011967;28;20047;-52
2024/02/02 09:35:59;;;;;;;8.77;7.78;;;15.30;84.10;;;;;;5040181;28;20036;-53
2024/02/02 09:38:26;;;;;;;10.82;6.80;;;14.80;84.70;;;;;;5041551;28;20068;-53
2024/02/02 09:41:00;;;;;;;8.15;6.70;;;16.00;84.20;;;;;;5049215;28;20037;-53
2024/02/02 09:43:29;;;;;;;9.15;5.43;;;15.20;84.30;;;;;;5051858;28;20033;-51
2024/02/02 09:45:57;;;;;;;11.27;5.15;;;14.80;83.70;;;;;;5051983;28;20101;-53
2024/02/02 09:49:01;;;;;;;15.38;8.40;;;15.40;84.30;;;;;;5051783;28;20028;-52
2024/02/02 09:51:43;;;;;;;8.45;5.13;;;15.40;83.60;;;;;;5051617;28;20128;-53
2024/02/02 09:54:38;;;;;;;4.32;2.20;;;15.60;83.50;;;;;;5051912;28;20040;-54
2024/02/02 09:57:27;;;;;;;24.05;9.90;;;;;;;;;;5055710;28;20036;-52
2024/02/02 10:00:08;;;;;;;18.10;7.43;;;13.50;84.30;;;;;;5051280;28;20045;-52
2024/02/02 10:02:42;;;;;;;18.35;7.20;;;;;;;;;;5057433;28;20037;-53
2024/02/02 10:05:34;;;;;;;10.05;4.78;;;13.00;86.90;;;;;;5044951;28;20029;-54
2024/02/02 10:08:03;;;;;;;;;;;13.10;88.00;;;;;;5036303;28;20065;-53
2024/02/02 10:10:41;;;;;;;6.05;3.00;;;12.70;87.40;;;;;;5050147;28;19959;-52
2024/02/02 10:13:12;;;;;;;7.18;4.22;;;12.70;88.20;;;;;;5035946;28;20033;-52
2024/02/02 10:15:57;;;;;;;5.90;4.20;;;12.90;88.40;;;;;;5035434;28;20034;-52
2024/02/02 10:18:53;;;;;;;8.48;5.40;;;13.30;88.80;;;;;;5035563;28;20038;-51
2024/02/02 10:21:50;;;;;;;6.85;4.78;;;13.70;87.90;;;;;;5035523;28;20477;-54
2024/02/02 10:24:19;;;;;;;28.15;12.45;;;13.90;87.30;;;;;;5016480;28;20405;-51
2024/02/02 10:27:15;;;;;;;9.20;3.95;;;13.60;86.50;;;;;;5033229;28;20083;-52
2024/02/02 10:30:05;;;;;;;13.20;6.70;;;13.00;88.10;;;;;;5035246;28;20535;-53
2024/02/02 10:32:53;;;;;;;13.70;5.90;;;12.40;89.40;;;;;;5035298;28;20108;-51
2024/02/02 10:35:49;;;;;;;10.57;4.70;;;13.40;90.00;;;;;;5035043;28;20037;-54
2024/02/02 10:38:22;;;;;;;5.07;3.50;;;13.50;89.30;;;;;;5035187;28;20034;-53
2024/02/02 10:41:17;;;;;;;25.05;13.55;;;13.30;88.90;;;;;;5035077;28;20029;-52
2024/02/02 10:44:01;;;;;;;8.00;5.22;;;12.70;89.60;;;;;;5033951;28;20041;-51
2024/02/02 10:46:33;;;;;;;24.92;14.52;;;12.70;90.00;;;;;;5035225;28;20095;-51
2024/02/02 10:49:21;;;;;;;27.35;13.85;;;12.90;90.30;;;;;;5034619;28;20030;-52
2024/02/02 10:51:46;;;;;;;7.75;5.82;;;13.60;90.50;;;;;;5039034;28;20094;-51
2024/02/02 10:54:33;;;;;;;12.73;5.88;;;13.70;90.00;;;;;;5044339;28;20096;-52
2024/02/02 10:57:17;;;;;;;9.20;4.32;;;13.90;88.90;;;;;;5037332;28;20112;-51
2024/02/02 11:00:10;;;;;;;8.15;4.55;;;13.20;89.30;;;;;;5034666;28;20030;-52
2024/02/02 11:02:51;;;;;;;20.80;11.10;;;12.80;90.00;;;;;;5034766;28;20063;-51
2024/02/02 11:05:54;;;;;;;6.55;3.53;;;13.40;89.50;;;;;;5034606;28;20025;-53
2024/02/02 11:08:27;;;;;;;19.90;8.95;;;12.80;88.80;;;;;;5041682;28;20381;-54
2024/02/02 11:11:10;;;;;;;11.32;3.35;;;13.40;90.20;;;;;;5040677;28;20037;-51
2024/02/02 11:13:55;;;;;;;11.73;5.50;;;12.60;89.50;;;;;;5037544;28;20036;-51
2024/02/02 11:16:41;;;;;;;9.98;4.43;;;12.70;90.20;;;;;;5042276;28;20102;-51
2024/02/02 11:19:13;;;;;;;8.93;2.97;;;12.70;90.60;;;;;;5046566;28;20064;-50
2024/02/02 11:21:42;;;;;;;7.68;3.95;;;;;;;;;;5043555;28;20044;-50
2024/02/02 11:24:49;;;;;;;9.88;4.47;;;11.80;90.20;;;;;;5043744;28;20041;-54
2024/02/02 11:27:17;;;;;;;7.15;4.05;;;11.60;90.60;;;;;;5048400;28;20037;-53
2024/02/02 11:30:06;;;;;;;11.15;7.43;;;12.30;90.60;;;;;;5041059;28;20037;-53
2024/02/02 11:33:03;;;;;;;7.60;4.70;;;12.80;90.50;;;;;;5041313;28;20033;-53
2024/02/02 11:35:38;;;;;;;7.20;3.85;;;12.50;90.50;;;;;;5033520;28;20063;-50
2024/02/02 11:38:18;;;;;;;6.28;4.00;;;12.90;90.00;;;;;;5033947;28;20032;-52
2024/02/02 11:40:46;;;;;;;9.15;3.42;;;14.10;88.70;;;;;;5033753;28;20064;-54
2024/02/02 11:43:13;;;;;;;4.68;2.50;;;14.10;87.40;;;;;;5033612;28;20052;-53
2024/02/02 11:45:42;;;;;;;6.45;4.25;;;14.30;86.80;;;;;;5033817;28;20068;-53
2024/02/02 11:48:21;;;;;;;6.25;2.63;;;14.10;87.60;;;;;;5033727;28;20025;-51
2024/02/02 11:50:49;;;;;;;7.20;3.25;;;13.80;86.60;;;;;;5033758;28;20044;-53
2024/02/02 11:53:18;;;;;;;6.25;3.15;;;13.30;87.40;;;;;;5033575;28;20053;-51
2024/02/02 11:55:49;;;;;;;13.57;5.82;;;12.70;87.20;;;;;;5033596;28;20034;-53
2024/02/02 11:58:18;;;;;;;6.57;2.60;;;12.50;88.30;;;;;;5033668;28;20036;-52
2024/02/02 12:01:03;;;;;;;8.00;3.53;;;12.20;89.50;;;;;;5033347;28;20033;-51
2024/02/02 12:03:47;;;;;;;11.48;5.20;;;12.10;90.30;;;;;;5043005;28;20508;-54
2024/02/02 12:06:15;;;;;;;6.22;2.80;;;12.00;90.30;;;;;;5046611;28;20033;-52
2024/02/02 12:08:47;;;;;;;11.00;3.60;;;11.80;90.20;;;;;;5068003;28;20195;-55
2024/02/02 12:11:14;;;;;;;13.95;6.22;;;11.80;90.50;;;;;;5053378;28;20393;-53
2024/02/02 12:13:43;;;;;;;10.90;4.88;;;11.60;90.30;;;;;;5052135;28;20033;-52
2024/02/02 12:16:09;;;;;;;5.95;2.95;;;11.60;90.20;;;;;;5031222;28;20135;-51
2024/02/02 12:18:37;;;;;;;10.10;5.35;;;11.50;90.80;;;;;;5041497;28;20021;-51
2024/02/02 12:21:11;;;;;;;5.72;2.45;;;11.70;91.20;;;;;;5042251;28;20139;-53
2024/02/02 12:23:37;;;;;;;8.50;3.83;;;11.70;91.10;;;;;;5041947;28;20120;-52
2024/02/02 12:26:03;;;;;;;14.90;6.03;;;11.70;91.20;;;;;;5039983;28;20610;-52
2024/02/02 12:28:29;;;;;;;7.82;3.10;;;11.80;91.20;;;;;;5043563;28;20029;-51
2024/02/02 12:30:54;;;;;;;10.85;4.88;;;11.50;90.80;;;;;;5027847;28;20022;-53
2024/02/02 12:33:23;;;;;;;9.18;4.50;;;11.60;91.20;;;;;;5042332;28;20049;-51
2024/02/02 12:35:49;;;;;;;8.02;4.25;;;11.70;91.00;;;;;;5039060;28;20068;-54
2024/02/02 12:38:23;;;;;;;18.13;6.43;;;11.70;91.00;;;;;;5043154;28;20384;-53
2024/02/02 12:40:50;;;;;;;9.27;3.95;;;11.70;91.00;;;;;;5040606;28;20075;-53
2024/02/02 12:43:23;;;;;;;15.80;7.68;;;12.10;91.10;;;;;;5032564;28;20112;-54
2024/02/02 12:45:49;;;;;;;16.58;7.65;;;12.30;90.70;;;;;;5048725;28;20112;-51
2024/02/02 12:48:14;;;;;;;10.43;3.80;;;12.60;91.20;;;;;;5032608;28;20133;-53
2024/02/02 12:50:43;;;;;;;19.33;9.40;;;12.50;90.80;;;;;;5050401;28;20127;-52
2024/02/02 12:53:10;;;;;;;11.05;6.57;;;12.70;90.60;;;;;;5052390;28;20147;-52
2024/02/02 12:55:36;;;;;;;8.70;4.78;;;12.80;90.40;;;;;;5052511;28;20048;-54
2024/02/02 12:58:03;;;;;;;11.70;4.30;;;;;;;;;;5051870;28;20489;-52
2024/02/02 13:00:29;;;;;;;7.05;2.88;;;11.40;90.40;;;;;;5052381;28;20123;-52